createdAt,value
2019-06-26T00:00:19.594Z,72.70
2019-06-26T00:02:50.691Z,73.10
2019-06-26T00:05:22.185Z,73.20
2019-06-26T00:07:54.264Z,73.30
2019-06-26T00:10:24.780Z,73.60
2019-06-26T00:12:58.240Z,75.20
2019-06-26T00:15:29.808Z,73.50
2019-06-26T00:18:03.763Z,73.30
2019-06-26T00:20:36.769Z,73.00
2019-06-26T00:23:07.233Z,73.10
2019-06-26T00:25:39.812Z,72.90
2019-06-26T00:28:11.255Z,72.90
2019-06-26T00:30:42.755Z,72.10
2019-06-26T00:33:16.117Z,71.70
2019-06-26T00:35:46.869Z,72.60
2019-06-26T00:38:18.615Z,71.80
2019-06-26T00:40:49.781Z,71.70
2019-06-26T00:43:22.484Z,71.80
2019-06-26T00:45:54.147Z,71.20
2019-06-26T00:48:25.223Z,73.00
2019-06-26T00:50:56.352Z,73.20
2019-06-26T00:53:30.398Z,71.30
2019-06-26T00:56:01.076Z,74.00
2019-06-26T00:58:32.017Z,74.20
2019-06-26T01:01:03.508Z,74.20
2019-06-26T01:03:35.026Z,74.20
2019-06-26T01:06:10.096Z,73.80
2019-06-26T01:08:40.587Z,71.10
2019-06-26T01:11:12.723Z,72.90
2019-06-26T01:13:57.287Z,71.90
2019-06-26T01:16:16.602Z,71.60
2019-06-26T01:18:47.606Z,71.80
2019-06-26T01:21:18.143Z,71.60
2019-06-26T01:23:48.763Z,71.50
2019-06-26T01:26:20.744Z,71.50
2019-06-26T01:28:52.457Z,72.40
2019-06-26T01:31:23.726Z,72.50
2019-06-26T01:33:54.841Z,71.90
2019-06-26T01:36:25.367Z,71.70
2019-06-26T01:38:56.550Z,72.20
2019-06-26T01:41:27.080Z,72.30
2019-06-26T01:44:10.571Z,72.40
2019-06-26T01:46:30.504Z,73.20
2019-06-26T01:49:00.989Z,73.50
2019-06-26T01:51:32.158Z,74.20
2019-06-26T01:54:03.074Z,75.40
2019-06-26T01:56:34.015Z,76.70
2019-06-26T01:59:05.706Z,73.70
2019-06-26T02:01:36.641Z,75.10
2019-06-26T02:04:07.163Z,74.60
2019-06-26T02:06:37.727Z,76.40
2019-06-26T02:09:09.836Z,73.80
2019-06-26T02:11:41.932Z,74.20
2019-06-26T02:14:12.989Z,75.00
2019-06-26T02:16:44.184Z,75.30
2019-06-26T02:19:17.042Z,76.10
2019-06-26T02:21:51.197Z,76.90
2019-06-26T02:24:21.792Z,77.00
2019-06-26T02:26:52.928Z,77.00
2019-06-26T02:29:24.381Z,76.80
2019-06-26T02:31:55.571Z,76.70
2019-06-26T02:34:27.130Z,77.80
2019-06-26T02:36:58.465Z,77.90
2019-06-26T02:39:28.952Z,77.60
2019-06-26T02:42:00.634Z,76.90
2019-06-26T02:44:47.127Z,76.50
2019-06-26T02:47:18.478Z,75.70
2019-06-26T02:49:37.759Z,75.10
2019-06-26T02:52:09.526Z,75.60
2019-06-26T02:54:42.043Z,75.30
2019-06-26T02:57:13.245Z,76.70
2019-06-26T02:59:45.123Z,76.50
2019-06-26T03:02:16.281Z,76.40
2019-06-26T03:04:47.303Z,75.90
2019-06-26T03:07:18.188Z,75.80
2019-06-26T03:09:48.943Z,75.80
2019-06-26T03:12:21.130Z,75.60
2019-06-26T03:15:04.661Z,76.70
2019-06-26T03:17:24.271Z,76.90
2019-06-26T03:19:55.107Z,76.90
2019-06-26T03:22:26.470Z,77.00
2019-06-26T03:24:57.197Z,76.90
2019-06-26T03:27:28.020Z,76.60
2019-06-26T03:29:58.626Z,76.40
2019-06-26T03:32:32.592Z,76.70
2019-06-26T03:35:03.515Z,76.60
2019-06-26T03:37:34.075Z,76.60
2019-06-26T03:40:05.243Z,77.00
2019-06-26T03:42:35.934Z,79.30
2019-06-26T03:45:24.095Z,81.10
2019-06-26T03:47:41.705Z,78.20
2019-06-26T03:50:12.457Z,78.00
2019-06-26T03:52:45.333Z,77.70
2019-06-26T03:55:15.920Z,77.40
2019-06-26T03:57:47.078Z,76.30
2019-06-26T04:00:26.304Z,76.90
2019-06-26T04:02:56.979Z,77.60
2019-06-26T04:05:27.765Z,77.60
2019-06-26T04:07:59.747Z,77.50
2019-06-26T04:10:30.392Z,77.60
2019-06-26T04:13:01.280Z,77.70
2019-06-26T04:15:41.615Z,77.80
2019-06-26T04:18:04.506Z,78.20
2019-06-26T04:20:35.551Z,78.30
2019-06-26T04:23:06.399Z,78.40
2019-06-26T04:25:38.414Z,78.40
2019-06-26T04:28:09.713Z,78.50
2019-06-26T04:30:40.222Z,78.40
2019-06-26T04:33:10.796Z,78.60
2019-06-26T04:35:41.506Z,78.40
2019-06-26T04:38:12.243Z,79.40
2019-06-26T04:40:43.292Z,78.40
2019-06-26T04:43:14.369Z,78.20
2019-06-26T04:45:57.643Z,77.80
2019-06-26T04:48:18.856Z,77.20
2019-06-26T04:50:49.672Z,77.10
2019-06-26T04:53:20.299Z,77.20
2019-06-26T04:55:51.412Z,77.10
2019-06-26T04:58:21.962Z,76.90
2019-06-26T05:00:57.374Z,77.20
2019-06-26T05:03:28.362Z,77.30
2019-06-26T05:05:58.914Z,77.10
2019-06-26T05:08:29.571Z,77.10
2019-06-26T05:11:01.965Z,76.60
2019-06-26T05:13:33.680Z,76.60
2019-06-26T05:16:15.084Z,76.30
2019-06-26T05:18:39.669Z,76.30
2019-06-26T05:21:10.737Z,76.20
2019-06-26T05:23:41.724Z,75.90
2019-06-26T05:26:12.849Z,75.30
2019-06-26T05:28:43.781Z,75.20
2019-06-26T05:31:14.784Z,74.80
2019-06-26T05:33:45.373Z,73.50
2019-06-26T05:36:16.025Z,74.60
2019-06-26T05:38:46.653Z,74.90
2019-06-26T05:41:17.475Z,74.50
2019-06-26T05:43:48.168Z,75.00
2019-06-26T05:46:30.568Z,74.20
2019-06-26T05:48:51.723Z,74.20
2019-06-26T05:51:22.682Z,74.20
2019-06-26T05:53:53.309Z,74.00
2019-06-26T05:56:24.496Z,74.20
2019-06-26T05:58:55.368Z,74.10
2019-06-26T06:01:26.790Z,74.50
2019-06-26T06:03:57.688Z,74.10
2019-06-26T06:06:40.984Z,73.90
2019-06-26T06:09:00.478Z,73.40
2019-06-26T06:11:31.437Z,73.60
2019-06-26T06:14:02.428Z,73.80
2019-06-26T06:16:46.437Z,73.80
2019-06-26T06:19:06.341Z,73.60
2019-06-26T06:21:36.936Z,73.40
2019-06-26T06:24:07.514Z,73.40
2019-06-26T06:26:39.378Z,73.30
2019-06-26T06:29:09.895Z,73.10
2019-06-26T06:31:40.536Z,72.90
2019-06-26T06:34:13.266Z,72.40
2019-06-26T06:36:43.897Z,72.00
2019-06-26T06:39:14.602Z,71.80
2019-06-26T06:41:45.312Z,71.70
2019-06-26T06:44:15.948Z,71.80
2019-06-26T06:47:02.623Z,71.70
2019-06-26T06:49:22.835Z,71.50
2019-06-26T06:51:53.425Z,70.60
2019-06-26T06:54:24.463Z,71.10
2019-06-26T06:56:55.102Z,70.60
2019-06-26T06:59:26.327Z,70.30
2019-06-26T07:01:59.942Z,69.80
2019-06-26T07:04:30.543Z,69.80
2019-06-26T07:07:03.071Z,69.50
2019-06-26T07:09:37.277Z,68.90
2019-06-26T07:15:57.514Z,67.90
2019-06-26T07:18:28.520Z,67.10
2019-06-26T07:20:59.323Z,67.20
2019-06-26T07:23:33.342Z,67.40
2019-06-26T07:26:05.766Z,65.40
2019-06-26T07:28:36.508Z,65.20
2019-06-26T07:31:09.928Z,65.20
2019-06-26T07:33:40.673Z,64.30
2019-06-26T07:36:11.471Z,64.00
2019-06-26T07:38:42.484Z,63.50
2019-06-26T07:41:12.993Z,63.10
2019-06-26T07:43:44.391Z,63.30
2019-06-26T07:46:16.199Z,63.20
2019-06-26T07:48:46.959Z,62.40
2019-06-26T07:51:17.952Z,62.30
2019-06-26T07:53:49.731Z,62.10
2019-06-26T07:56:20.319Z,62.40
2019-06-26T07:58:51.020Z,61.90
2019-06-26T08:01:21.873Z,61.10
2019-06-26T08:03:59.755Z,61.10
2019-06-26T08:06:30.718Z,60.90
2019-06-26T08:09:05.027Z,60.60
2019-06-26T08:11:36.660Z,60.40
2019-06-26T08:14:09.145Z,60.40
2019-06-26T08:16:40.017Z,60.30
2019-06-26T08:19:10.789Z,59.90
2019-06-26T08:21:41.313Z,59.20
2019-06-26T08:24:11.971Z,59.70
2019-06-26T08:26:42.558Z,59.50
2019-06-26T08:29:13.129Z,59.00
2019-06-26T08:31:46.543Z,58.80
2019-06-26T08:34:17.173Z,58.60
2019-06-26T08:36:54.887Z,58.60
2019-06-26T08:46:37.850Z,58.00
2019-06-26T08:49:24.388Z,57.70
2019-06-26T08:51:45.491Z,57.70
2019-06-26T08:54:16.063Z,57.20
2019-06-26T08:56:54.474Z,57.00
2019-06-26T08:59:26.171Z,57.00
2019-06-26T09:01:56.810Z,56.80
2019-06-26T09:04:29.258Z,56.60
2019-06-26T09:07:56.103Z,56.50
2019-06-26T09:10:29.104Z,56.40
2019-06-26T09:13:00.147Z,56.60
2019-06-26T09:15:30.712Z,56.40
2019-06-26T09:18:07.226Z,55.80
2019-06-26T09:20:45.390Z,54.80
2019-06-26T09:23:16.916Z,55.80
2019-06-26T09:25:47.650Z,55.60
2019-06-26T09:28:18.472Z,54.50
2019-06-26T09:30:51.319Z,55.60
2019-06-26T09:33:25.244Z,54.80
2019-06-26T09:36:13.600Z,54.60
2019-06-26T09:39:31.753Z,53.70
2019-06-26T09:42:05.561Z,54.60
2019-06-26T09:44:36.209Z,54.40
2019-06-26T09:47:06.942Z,54.30
2019-06-26T09:49:37.728Z,53.60
2019-06-26T09:52:10.343Z,53.40
2019-06-26T09:54:42.567Z,52.80
2019-06-26T09:57:13.958Z,52.30
2019-06-26T09:59:47.269Z,52.60
2019-06-26T10:02:17.899Z,52.30
2019-06-26T10:04:48.749Z,52.30
2019-06-26T10:07:26.511Z,52.30
2019-06-26T10:09:58.388Z,52.30
2019-06-26T10:12:28.988Z,52.00
2019-06-26T10:15:04.801Z,51.60
2019-06-26T10:17:37.734Z,51.70
2019-06-26T10:20:09.867Z,51.80
2019-06-26T10:22:40.510Z,51.60
2019-06-26T10:25:12.297Z,51.20
2019-06-26T10:27:43.876Z,50.80
2019-06-26T10:30:16.352Z,50.60
2019-06-26T10:32:47.209Z,49.30
2019-06-26T10:35:18.331Z,48.50
2019-06-26T10:37:49.371Z,48.60
2019-06-26T10:40:21.607Z,47.70
2019-06-26T10:42:57.381Z,44.00
2019-06-26T10:45:30.216Z,42.50
2019-06-26T10:48:10.652Z,40.90
2019-06-26T10:50:58.823Z,38.50
2019-06-26T10:53:31.259Z,39.30
2019-06-26T10:56:02.316Z,38.00
2019-06-26T10:58:32.880Z,36.70
2019-06-26T11:01:03.933Z,36.20
2019-06-26T11:03:36.444Z,36.20
2019-06-26T11:06:07.264Z,34.80
2019-06-26T11:08:38.839Z,34.00
2019-06-26T11:11:09.450Z,34.10
2019-06-26T11:13:40.579Z,33.20
2019-06-26T11:16:12.440Z,32.30
2019-06-26T11:18:45.371Z,32.40
2019-06-26T11:21:17.906Z,33.20
2019-06-26T11:23:55.720Z,32.90
2019-06-26T11:26:27.583Z,28.80
2019-06-26T11:28:58.757Z,30.20
2019-06-26T11:31:29.951Z,28.90
2019-06-26T11:34:01.083Z,31.40
2019-06-26T11:36:31.996Z,31.60
2019-06-26T11:39:03.295Z,31.30
2019-06-26T11:41:41.150Z,30.80
2019-06-26T11:44:14.494Z,30.10
2019-06-26T11:46:47.578Z,29.60
2019-06-26T11:49:55.724Z,29.80
2019-06-26T11:52:18.351Z,29.60
2019-06-26T11:55:01.763Z,29.20
2019-06-26T11:57:22.935Z,28.60
2019-06-26T11:59:54.269Z,27.10
2019-06-26T12:02:30.290Z,26.70
2019-06-26T12:05:01.551Z,26.40
2019-06-26T12:07:32.996Z,26.00
2019-06-26T12:10:04.915Z,25.40
2019-06-26T12:12:36.879Z,25.90
2019-06-26T12:15:07.975Z,25.40
2019-06-26T12:17:39.495Z,24.90
2019-06-26T12:20:18.515Z,24.80
2019-06-26T12:22:44.338Z,24.10
2019-06-26T12:25:16.840Z,25.20
2019-06-26T12:27:48.519Z,24.40
2019-06-26T12:30:19.597Z,24.30
2019-06-26T12:33:02.144Z,24.50
2019-06-26T12:35:22.541Z,24.30
2019-06-26T12:37:53.115Z,24.30
2019-06-26T12:40:23.799Z,24.10
2019-06-26T12:42:55.808Z,24.00
2019-06-26T12:45:28.156Z,23.70
2019-06-26T12:47:58.771Z,22.90
2019-06-26T12:50:35.488Z,24.50
2019-06-26T12:53:01.657Z,24.20
2019-06-26T12:55:33.115Z,24.30
2019-06-26T12:58:13.214Z,23.00
2019-06-26T13:00:36.759Z,23.60
2019-06-26T13:03:07.594Z,22.80
2019-06-26T13:05:39.448Z,23.20
2019-06-26T13:08:10.253Z,22.70
2019-06-26T13:10:49.414Z,23.40
2019-06-26T13:13:16.852Z,23.00
2019-06-26T13:15:50.937Z,22.80
2019-06-26T13:18:20.363Z,20.60
2019-06-26T13:20:57.665Z,21.10
2019-06-26T13:23:32.685Z,22.20
2019-06-26T13:26:03.897Z,21.70
2019-06-26T13:28:36.119Z,21.10
2019-06-26T13:31:06.728Z,20.10
2019-06-26T13:33:37.488Z,19.50
2019-06-26T13:36:08.080Z,19.20
2019-06-26T13:38:38.904Z,20.00
2019-06-26T13:41:19.123Z,20.80
2019-06-26T13:43:59.146Z,21.60
2019-06-26T13:46:29.541Z,21.60
2019-06-26T13:49:00.178Z,21.30
2019-06-26T13:51:30.703Z,20.00
2019-06-26T13:54:01.179Z,18.90
2019-06-26T13:56:32.644Z,20.40
2019-06-26T13:59:07.298Z,20.70
2019-06-26T14:01:36.506Z,21.90
2019-06-26T14:04:07.786Z,21.20
2019-06-26T14:06:39.046Z,21.40
2019-06-26T14:09:09.624Z,19.50
2019-06-26T14:11:40.151Z,19.10
2019-06-26T14:14:11.498Z,19.60
2019-06-26T14:16:42.057Z,19.90
2019-06-26T14:19:31.778Z,20.00
2019-06-26T14:22:13.089Z,19.70
2019-06-26T14:24:45.456Z,20.20
2019-06-26T14:27:17.333Z,19.50
2019-06-26T14:29:49.296Z,19.20
2019-06-26T14:32:20.170Z,19.40
2019-06-26T14:34:52.029Z,19.90
2019-06-26T14:37:25.450Z,20.50
2019-06-26T14:39:56.246Z,21.50
2019-06-26T14:42:29.573Z,22.30
2019-06-26T14:45:00.713Z,23.30
2019-06-26T14:47:35.428Z,23.60
2019-06-26T14:50:08.290Z,24.20
2019-06-26T14:52:39.154Z,24.60
2019-06-26T14:55:10.862Z,25.50
2019-06-26T14:57:41.968Z,26.20
2019-06-26T15:00:17.328Z,27.70
2019-06-26T15:02:48.305Z,29.00
2019-06-26T15:05:19.447Z,29.70
2019-06-26T15:07:50.783Z,30.00
2019-06-26T15:10:21.602Z,31.50
2019-06-26T15:12:52.286Z,31.80
2019-06-26T15:15:22.768Z,32.50
2019-06-26T15:17:54.130Z,33.40
2019-06-26T15:20:25.470Z,32.70
2019-06-26T15:22:58.749Z,34.10
2019-06-26T15:25:28.574Z,34.00
2019-06-26T15:27:59.150Z,34.50
2019-06-26T15:30:29.745Z,34.30
2019-06-26T15:33:01.717Z,34.70
2019-06-26T15:35:33.684Z,32.70
2019-06-26T15:38:04.948Z,33.20
2019-06-26T15:40:35.597Z,30.10
2019-06-26T15:43:06.183Z,32.10
2019-06-26T15:45:37.057Z,31.70
2019-06-26T15:48:08.170Z,33.00
2019-06-26T15:50:38.690Z,33.20
2019-06-26T15:53:11.248Z,33.30
2019-06-26T15:55:42.071Z,33.10
2019-06-26T15:58:13.408Z,31.80
2019-06-26T16:00:44.043Z,32.10
2019-06-26T16:03:15.647Z,32.80
2019-06-26T16:05:46.828Z,33.20
2019-06-26T16:08:17.740Z,32.30
2019-06-26T16:10:48.366Z,32.10
2019-06-26T16:13:19.017Z,33.20
2019-06-26T16:15:50.027Z,33.20
2019-06-26T16:18:31.366Z,33.60
2019-06-26T16:21:02.049Z,33.50
2019-06-26T16:23:32.742Z,33.50
2019-06-26T16:26:03.464Z,34.10
2019-06-26T16:28:37.367Z,34.20
2019-06-26T16:31:08.384Z,34.20
2019-06-26T16:33:39.156Z,34.50
2019-06-26T16:36:09.947Z,35.30
2019-06-26T16:38:41.092Z,35.20
2019-06-26T16:41:12.114Z,35.60
2019-06-26T16:43:46.793Z,35.90
2019-06-26T16:46:17.808Z,35.90
2019-06-26T16:48:48.771Z,36.00
2019-06-26T16:51:19.380Z,36.20
2019-06-26T16:53:49.930Z,36.30
2019-06-26T16:56:20.522Z,36.80
2019-06-26T16:58:51.412Z,36.90
2019-06-26T17:01:22.692Z,37.00
2019-06-26T17:03:56.241Z,37.20
2019-06-26T17:06:26.017Z,36.00
2019-06-26T17:08:56.619Z,36.30
2019-06-26T17:11:27.371Z,36.40
2019-06-26T17:13:58.150Z,36.40
2019-06-26T17:16:29.082Z,36.50
2019-06-26T17:19:01.566Z,36.80
2019-06-26T17:21:32.189Z,36.60
2019-06-26T17:24:02.853Z,36.80
2019-06-26T17:26:33.565Z,37.50
2019-06-26T17:29:04.286Z,37.00
2019-06-26T17:31:34.856Z,35.70
2019-06-26T17:34:05.707Z,35.80
2019-06-26T17:36:36.642Z,36.00
2019-06-26T17:39:07.774Z,35.80
2019-06-26T17:41:43.861Z,35.50
2019-06-26T17:44:10.874Z,35.70
2019-06-26T17:46:42.225Z,35.40
2019-06-26T17:49:13.094Z,34.90
2019-06-26T17:51:44.016Z,35.00
2019-06-26T17:54:14.723Z,35.20
2019-06-26T17:56:48.525Z,35.80
2019-06-26T17:59:19.895Z,36.30
2019-06-26T18:01:52.296Z,37.00
2019-06-26T18:04:23.211Z,39.10
2019-06-26T18:06:53.953Z,38.40
2019-06-26T18:09:24.583Z,39.80
2019-06-26T18:11:57.622Z,40.30
2019-06-26T18:14:28.225Z,41.40
2019-06-26T18:16:59.147Z,41.90
2019-06-26T18:19:29.860Z,42.10
2019-06-26T18:22:00.515Z,43.00
2019-06-26T18:24:32.550Z,43.50
2019-06-26T18:27:04.131Z,43.90
2019-06-26T18:29:34.766Z,44.20
2019-06-26T18:32:05.371Z,42.50
2019-06-26T18:34:38.755Z,43.30
2019-06-26T18:37:10.067Z,43.70
2019-06-26T18:39:42.517Z,42.80
2019-06-26T18:42:13.373Z,42.80
2019-06-26T18:44:44.202Z,43.80
2019-06-26T18:47:14.736Z,44.40
2019-06-26T18:49:45.266Z,45.40
2019-06-26T18:52:21.209Z,46.10
2019-06-26T18:54:52.670Z,47.30
2019-06-26T18:57:23.307Z,47.00
2019-06-26T18:59:54.960Z,47.00
2019-06-26T19:02:25.968Z,46.80
2019-06-26T19:04:56.706Z,46.90
2019-06-26T19:07:27.624Z,45.50
2019-06-26T19:09:59.217Z,47.90
2019-06-26T19:12:32.076Z,46.60
2019-06-26T19:15:05.114Z,46.20
2019-06-26T19:17:42.457Z,47.60
2019-06-26T19:20:13.002Z,47.40
2019-06-26T19:22:47.369Z,48.00
2019-06-26T19:25:16.541Z,49.40
2019-06-26T19:27:47.112Z,49.60
2019-06-26T19:30:19.410Z,49.30
2019-06-26T19:32:50.676Z,49.10
2019-06-26T19:35:21.288Z,49.50
2019-06-26T19:37:52.498Z,49.50
2019-06-26T19:40:24.252Z,49.30
2019-06-26T19:42:55.367Z,50.20
2019-06-26T19:45:26.367Z,49.60
2019-06-26T19:47:57.760Z,49.40
2019-06-26T19:50:28.396Z,49.90
2019-06-26T19:52:59.797Z,50.00
2019-06-26T19:55:30.336Z,51.60
2019-06-26T19:58:00.791Z,51.50
2019-06-26T20:00:31.393Z,51.60
2019-06-26T20:03:02.004Z,51.70
2019-06-26T20:05:32.708Z,51.70
2019-06-26T20:08:03.360Z,51.70
2019-06-26T20:10:33.842Z,52.20
2019-06-26T20:13:04.478Z,51.00
2019-06-26T20:15:35.703Z,52.90
2019-06-26T20:18:06.674Z,52.60
2019-06-26T20:20:38.034Z,52.90
2019-06-26T20:23:08.649Z,53.10
2019-06-26T20:25:39.637Z,53.00
2019-06-26T20:28:10.098Z,53.40
2019-06-26T20:30:40.616Z,53.70
2019-06-26T20:33:11.152Z,55.70
2019-06-26T20:35:42.954Z,54.70
2019-06-26T20:38:14.533Z,55.10
2019-06-26T20:40:46.170Z,54.60
2019-06-26T20:43:18.301Z,55.40
2019-06-26T20:45:48.804Z,55.50
2019-06-26T20:48:19.975Z,55.80
2019-06-26T20:50:50.527Z,55.60
2019-06-26T20:53:21.423Z,54.60
2019-06-26T20:55:52.925Z,55.50
2019-06-26T20:58:25.911Z,55.90
2019-06-26T21:00:56.456Z,55.90
2019-06-26T21:03:27.175Z,56.00
2019-06-26T21:05:57.738Z,55.90
2019-06-26T21:08:29.564Z,55.90
2019-06-26T21:11:03.114Z,55.90
2019-06-26T21:13:34.700Z,55.90
2019-06-26T21:16:05.262Z,55.90
2019-06-26T21:18:35.810Z,55.90
2019-06-26T21:21:07.022Z,56.30
2019-06-26T21:23:39.443Z,56.50
2019-06-26T21:26:10.431Z,57.00
2019-06-26T21:28:43.384Z,56.30
2019-06-26T21:31:14.270Z,57.30
2019-06-26T21:33:44.864Z,57.60
2019-06-26T21:36:15.767Z,57.70
2019-06-26T21:38:46.287Z,57.90
2019-06-26T21:41:16.911Z,58.30
2019-06-26T21:43:47.882Z,57.50
2019-06-26T21:46:18.489Z,57.50
2019-06-26T21:48:51.521Z,59.30
2019-06-26T21:51:22.822Z,59.30
2019-06-26T21:53:53.895Z,59.70
2019-06-26T21:56:24.485Z,59.80
2019-06-26T21:58:55.035Z,59.80
2019-06-26T22:01:31.024Z,59.80
2019-06-26T22:04:02.604Z,59.10
2019-06-26T22:06:33.262Z,60.00
2019-06-26T22:09:05.175Z,59.90
2019-06-26T22:11:35.829Z,60.00
2019-06-26T22:14:06.388Z,60.60
2019-06-26T22:16:38.711Z,60.20
2019-06-26T22:19:09.354Z,59.90
2019-06-26T22:21:40.235Z,61.80
2019-06-26T22:24:10.906Z,59.90
2019-06-26T22:26:43.086Z,60.20
2019-06-26T22:29:13.603Z,60.60
2019-06-26T22:31:44.279Z,61.40
2019-06-26T22:34:14.948Z,61.50
2019-06-26T22:36:51.683Z,61.60
2019-06-26T22:39:18.020Z,61.80
2019-06-26T22:41:48.950Z,61.90
2019-06-26T22:44:19.498Z,61.80
2019-06-26T22:46:50.103Z,62.20
2019-06-26T22:49:20.621Z,62.20
2019-06-26T22:51:51.226Z,62.40
2019-06-26T22:54:21.803Z,62.60
2019-06-26T22:56:52.323Z,62.00
2019-06-26T22:59:23.196Z,63.20
2019-06-26T23:01:53.793Z,63.30
2019-06-26T23:04:24.338Z,63.70
2019-06-26T23:06:54.902Z,63.80
2019-06-26T23:09:26.229Z,61.80
2019-06-26T23:11:56.776Z,64.10
2019-06-26T23:14:27.897Z,64.70
2019-06-26T23:16:58.449Z,64.40
2019-06-26T23:19:29.092Z,62.50
2019-06-26T23:22:00.325Z,64.30
2019-06-26T23:24:30.938Z,64.30
2019-06-26T23:27:01.597Z,64.30
2019-06-26T23:29:32.316Z,63.10
2019-06-26T23:32:03.504Z,64.60
2019-06-26T23:34:34.294Z,65.00
2019-06-26T23:37:05.480Z,65.50
2019-06-26T23:39:36.062Z,65.80
2019-06-26T23:42:06.707Z,65.20
2019-06-26T23:44:37.580Z,65.70
2019-06-26T23:47:08.207Z,65.90
2019-06-26T23:49:38.933Z,66.20
2019-06-26T23:52:09.541Z,66.30
2019-06-26T23:54:40.196Z,66.60
2019-06-26T23:57:11.013Z,66.90
2019-06-26T23:59:41.516Z,67.00
